EWG4MH EDDH-LIRF
Flight info
| Callsign | EWG4MH |
|---|---|
| Flight time | N/A |
| Altitude | 37000 |
| Route | AMLUH1C AMLUH M852 DENIX DCT ZUCKA DCT EXITI DCT BERAS M736 LIZUM N503 LIKDA DCT BAKOR DCT VESAL DCT GAVRA DCT RITEB |
| Aircraft | A320/M-SDE3FGHIRWY/LB1 |
Departure
| Time | 2026-02-19 14:54 |
|---|---|
| Airport | Hamburg Helmut Schmidt Airport (EDDH) |
Arrival
| Time | N/A |
|---|---|
| Airport | Rome–Fiumicino Leonardo da Vinci International Airport (LIRF) |
| Time | Latitude | Longitude | Altitude | Speed | Heading |
|---|---|---|---|---|---|
| 2026-02-19 14:01 | 53.63112 | 10.00376 | 41 ft | 0 kts | 87° |
| 2026-02-19 14:38 | 53.63112 | 10.00359 | 46 ft | 2 kts | 87° |
| 2026-02-19 14:38 | 53.63111 | 10.00331 | 43 ft | 2 kts | 88° |
| 2026-02-19 14:39 | 53.63111 | 10.00304 | 43 ft | 2 kts | 91° |
| 2026-02-19 14:39 | 53.63111 | 10.00276 | 43 ft | 2 kts | 111° |
| 2026-02-19 14:39 | 53.63122 | 10.00258 | 44 ft | 1 kts | 179° |
| 2026-02-19 14:39 | 53.63125 | 10.00258 | 44 ft | 0 kts | 178° |
| 2026-02-19 14:42 | 53.63110 | 10.00259 | 43 ft | 4 kts | 177° |
| 2026-02-19 14:43 | 53.63085 | 10.00261 | 46 ft | 4 kts | 178° |
| 2026-02-19 14:43 | 53.63030 | 10.00221 | 48 ft | 11 kts | 212° |
| 2026-02-19 14:43 | 53.62971 | 10.00158 | 48 ft | 9 kts | 213° |
| 2026-02-19 14:43 | 53.62921 | 10.00103 | 48 ft | 9 kts | 213° |
| 2026-02-19 14:44 | 53.62842 | 10.00000 | 48 ft | 16 kts | 221° |
| 2026-02-19 14:44 | 53.62648 | 9.99797 | 45 ft | 14 kts | 237° |
| 2026-02-19 14:44 | 53.62626 | 9.99646 | 47 ft | 13 kts | 259° |
| 2026-02-19 14:45 | 53.62611 | 9.99510 | 47 ft | 11 kts | 259° |
| 2026-02-19 14:45 | 53.62597 | 9.99392 | 47 ft | 10 kts | 259° |
| 2026-02-19 14:45 | 53.62580 | 9.99246 | 47 ft | 19 kts | 259° |
| 2026-02-19 14:45 | 53.62556 | 9.99034 | 47 ft | 18 kts | 258° |
| 2026-02-19 14:46 | 53.62534 | 9.98840 | 44 ft | 16 kts | 259° |
| 2026-02-19 14:46 | 53.62514 | 9.98665 | 47 ft | 15 kts | 259° |
| 2026-02-19 14:46 | 53.62496 | 9.98506 | 47 ft | 13 kts | 259° |
| 2026-02-19 14:46 | 53.62480 | 9.98364 | 47 ft | 12 kts | 259° |
| 2026-02-19 14:47 | 53.62465 | 9.98239 | 47 ft | 11 kts | 256° |
| 2026-02-19 14:47 | 53.62415 | 9.98062 | 47 ft | 19 kts | 234° |
| 2026-02-19 14:47 | 53.62336 | 9.97899 | 47 ft | 17 kts | 230° |
| 2026-02-19 14:47 | 53.62264 | 9.97753 | 47 ft | 15 kts | 230° |
| 2026-02-19 14:48 | 53.62200 | 9.97624 | 47 ft | 10 kts | 231° |
| 2026-02-19 14:48 | 53.62191 | 9.97439 | 43 ft | 9 kts | 298° |
| 2026-02-19 14:48 | 53.62248 | 9.97370 | 41 ft | 12 kts | 341° |
| 2026-02-19 14:49 | 53.62302 | 9.97351 | 40 ft | 4 kts | 4° |
| 2026-02-19 14:49 | 53.62323 | 9.97379 | 38 ft | 0 kts | 48° |
| 2026-02-19 14:53 | 53.62332 | 9.97395 | 38 ft | 9 kts | 49° |
| 2026-02-19 14:53 | 53.62513 | 9.97759 | 41 ft | 76 kts | 50° |
| 2026-02-19 14:53 | 53.62988 | 9.98724 | 46 ft | 135 kts | 50° |
| 2026-02-19 14:54 | 53.63633 | 10.00081 | 498 ft | 148 kts | 56° |
| 2026-02-19 14:54 | 53.64270 | 10.01440 | 1373 ft | 147 kts | 56° |
| 2026-02-19 14:54 | 53.64923 | 10.02776 | 2080 ft | 154 kts | 58° |
| 2026-02-19 14:54 | 53.65643 | 10.04284 | 2393 ft | 175 kts | 57° |
| 2026-02-19 14:55 | 53.66452 | 10.05965 | 2782 ft | 193 kts | 56° |
| 2026-02-19 14:55 | 53.67323 | 10.07730 | 3433 ft | 198 kts | 55° |
| 2026-02-19 14:55 | 53.68206 | 10.09506 | 4300 ft | 198 kts | 55° |
| 2026-02-19 14:55 | 53.69091 | 10.11284 | 5153 ft | 198 kts | 54° |
| 2026-02-19 14:56 | 53.69976 | 10.13078 | 5925 ft | 199 kts | 57° |
| 2026-02-19 14:56 | 53.70454 | 10.17529 | 7323 ft | 206 kts | 105° |
| 2026-02-19 14:56 | 53.69676 | 10.19677 | 7737 ft | 232 kts | 133° |
| 2026-02-19 14:57 | 53.68150 | 10.21004 | 8071 ft | 265 kts | 160° |
| 2026-02-19 14:57 | 53.66319 | 10.21831 | 8694 ft | 277 kts | 161° |
| 2026-02-19 14:57 | 53.64434 | 10.22651 | 9497 ft | 282 kts | 162° |
| 2026-02-19 14:57 | 53.62515 | 10.23485 | 10247 ft | 288 kts | 162° |
| 2026-02-19 14:58 | 53.60503 | 10.24375 | 10557 ft | 311 kts | 162° |
| 2026-02-19 14:58 | 53.58337 | 10.25347 | 10849 ft | 331 kts | 162° |
| 2026-02-19 14:58 | 53.56079 | 10.26355 | 11494 ft | 339 kts | 162° |
| 2026-02-19 14:58 | 53.53818 | 10.27363 | 12229 ft | 343 kts | 162° |
| 2026-02-19 14:59 | 53.51500 | 10.28401 | 12983 ft | 346 kts | 163° |
| 2026-02-19 14:59 | 53.49159 | 10.29450 | 13728 ft | 350 kts | 163° |
| 2026-02-19 14:59 | 53.46796 | 10.30509 | 14363 ft | 353 kts | 164° |
| 2026-02-19 14:59 | 53.44404 | 10.31581 | 14957 ft | 358 kts | 164° |
| 2026-02-19 15:00 | 53.41977 | 10.32668 | 15545 ft | 363 kts | 165° |
| 2026-02-19 15:00 | 53.37027 | 10.34901 | 16690 ft | 373 kts | 165° |
| 2026-02-19 15:00 | 53.34503 | 10.36035 | 17284 ft | 378 kts | 166° |
| 2026-02-19 15:01 | 53.31950 | 10.37180 | 17857 ft | 382 kts | 166° |
| 2026-02-19 15:01 | 53.29368 | 10.38335 | 18432 ft | 386 kts | 166° |
| 2026-02-19 15:01 | 53.26763 | 10.39498 | 18956 ft | 389 kts | 166° |
| 2026-02-19 15:01 | 53.24136 | 10.40670 | 19474 ft | 392 kts | 167° |
| 2026-02-19 15:02 | 53.21527 | 10.41833 | 19998 ft | 394 kts | 167° |
| 2026-02-19 15:02 | 53.18862 | 10.43020 | 20514 ft | 397 kts | 167° |
| 2026-02-19 15:02 | 53.16183 | 10.44210 | 21015 ft | 400 kts | 167° |
| 2026-02-19 15:02 | 53.13476 | 10.45409 | 21533 ft | 402 kts | 167° |
| 2026-02-19 15:03 | 53.10746 | 10.46505 | 22033 ft | 404 kts | 170° |
| 2026-02-19 15:03 | 53.07976 | 10.47441 | 22539 ft | 406 kts | 172° |
| 2026-02-19 15:03 | 53.05179 | 10.48278 | 23034 ft | 409 kts | 172° |
| 2026-02-19 15:03 | 53.02372 | 10.49079 | 23521 ft | 411 kts | 173° |
| 2026-02-19 15:04 | 52.99537 | 10.49891 | 23927 ft | 414 kts | 173° |
| 2026-02-19 15:04 | 52.93838 | 10.51590 | 24733 ft | 418 kts | 172° |
| 2026-02-19 15:04 | 52.91006 | 10.52467 | 25120 ft | 420 kts | 172° |
| 2026-02-19 15:05 | 52.88133 | 10.53362 | 25507 ft | 422 kts | 172° |
| 2026-02-19 15:05 | 52.85234 | 10.54264 | 25888 ft | 424 kts | 172° |
| 2026-02-19 15:05 | 52.82327 | 10.55166 | 26265 ft | 426 kts | 172° |
| 2026-02-19 15:05 | 52.79404 | 10.56071 | 26640 ft | 428 kts | 172° |
| 2026-02-19 15:06 | 52.76470 | 10.56977 | 27005 ft | 430 kts | 172° |
| 2026-02-19 15:06 | 52.73524 | 10.57885 | 27371 ft | 432 kts | 172° |
| 2026-02-19 15:06 | 52.70569 | 10.58791 | 27735 ft | 433 kts | 172° |
| 2026-02-19 15:06 | 52.67591 | 10.59703 | 28101 ft | 435 kts | 172° |
| 2026-02-19 15:07 | 52.64609 | 10.60613 | 28452 ft | 437 kts | 172° |
| 2026-02-19 15:07 | 52.61753 | 10.61484 | 28775 ft | 439 kts | 172° |
| 2026-02-19 15:07 | 52.58748 | 10.62399 | 29106 ft | 440 kts | 172° |
| 2026-02-19 15:07 | 52.55726 | 10.63317 | 29442 ft | 442 kts | 172° |
| 2026-02-19 15:08 | 52.52705 | 10.64235 | 29771 ft | 443 kts | 172° |
| 2026-02-19 15:08 | 52.46616 | 10.66079 | 30347 ft | 446 kts | 172° |
| 2026-02-19 15:08 | 52.43547 | 10.67011 | 30609 ft | 448 kts | 172° |
| 2026-02-19 15:09 | 52.40509 | 10.67933 | 30863 ft | 449 kts | 172° |
| 2026-02-19 15:09 | 52.37435 | 10.68862 | 31231 ft | 448 kts | 172° |
| 2026-02-19 15:09 | 52.34374 | 10.69786 | 31595 ft | 446 kts | 172° |
| 2026-02-19 15:09 | 52.31317 | 10.70701 | 31959 ft | 445 kts | 172° |
| 2026-02-19 15:10 | 52.28271 | 10.71610 | 32311 ft | 445 kts | 172° |
| 2026-02-19 15:10 | 52.25228 | 10.72523 | 32674 ft | 444 kts | 172° |
| 2026-02-19 15:10 | 52.22196 | 10.73433 | 33018 ft | 443 kts | 172° |
| 2026-02-19 15:10 | 52.19165 | 10.74344 | 33368 ft | 442 kts | 172° |
| 2026-02-19 15:11 | 52.16141 | 10.75250 | 33721 ft | 441 kts | 172° |
| 2026-02-19 15:11 | 52.13124 | 10.76151 | 34038 ft | 441 kts | 172° |
| 2026-02-19 15:11 | 52.10103 | 10.77052 | 34305 ft | 440 kts | 172° |
| 2026-02-19 15:11 | 52.07087 | 10.77949 | 34564 ft | 440 kts | 172° |
| 2026-02-19 15:12 | 52.04104 | 10.78837 | 34809 ft | 440 kts | 172° |
| 2026-02-19 15:12 | 51.98066 | 10.80632 | 35276 ft | 441 kts | 172° |
| 2026-02-19 15:12 | 51.95053 | 10.81520 | 35500 ft | 441 kts | 173° |
| 2026-02-19 15:13 | 51.92024 | 10.82412 | 35710 ft | 441 kts | 173° |
| 2026-02-19 15:13 | 51.89005 | 10.83300 | 35924 ft | 441 kts | 173° |
| 2026-02-19 15:13 | 51.85980 | 10.84192 | 36119 ft | 442 kts | 173° |
| 2026-02-19 15:13 | 51.82945 | 10.85087 | 36314 ft | 442 kts | 173° |
| 2026-02-19 15:14 | 51.79918 | 10.85979 | 36501 ft | 443 kts | 173° |
| 2026-02-19 15:14 | 51.76881 | 10.86873 | 36684 ft | 443 kts | 173° |
| 2026-02-19 15:14 | 51.73848 | 10.87764 | 36854 ft | 444 kts | 173° |
| 2026-02-19 15:14 | 51.70801 | 10.88654 | 36893 ft | 444 kts | 173° |
| 2026-02-19 15:15 | 51.64728 | 10.90402 | 36887 ft | 443 kts | 174° |
| 2026-02-19 15:15 | 51.58633 | 10.91956 | 36883 ft | 442 kts | 174° |
| 2026-02-19 15:16 | 51.49554 | 10.94150 | 36875 ft | 441 kts | 174° |
| 2026-02-19 15:17 | 51.43483 | 10.95658 | 36870 ft | 441 kts | 174° |
| 2026-02-19 15:17 | 51.37420 | 10.97178 | 36869 ft | 441 kts | 174° |
| 2026-02-19 15:18 | 51.32376 | 10.98441 | 36865 ft | 441 kts | 174° |